sensor_id;sensor_type;location;lat;lon;timestamp;pressure;altitude;pressure_sealevel;temperature;humidity
57606;BME280;43430;48.204;11.556;2023-09-12T00:00:41;95826.81;;;17.87;100.00
57606;BME280;43430;48.204;11.556;2023-09-12T00:03:07;95826.03;;;17.71;100.00
57606;BME280;43430;48.204;11.556;2023-09-12T00:05:33;95833.53;;;17.59;100.00
57606;BME280;43430;48.204;11.556;2023-09-12T00:07:58;95836.19;;;17.53;100.00
57606;BME280;43430;48.204;11.556;2023-09-12T00:10:23;95832.44;;;17.54;100.00
57606;BME280;43430;48.204;11.556;2023-09-12T00:12:48;95831.91;;;17.58;100.00
57606;BME280;43430;48.204;11.556;2023-09-12T00:15:14;95820.72;;;17.61;100.00
57606;BME280;43430;48.204;11.556;2023-09-12T00:17:39;95823.41;;;17.55;100.00
57606;BME280;43430;48.204;11.556;2023-09-12T00:20:05;95823.66;;;17.44;100.00
57606;BME280;43430;48.204;11.556;2023-09-12T00:22:32;95822.88;;;17.38;100.00
57606;BME280;43430;48.204;11.556;2023-09-12T00:24:57;95837.28;;;17.32;100.00
57606;BME280;43430;48.204;11.556;2023-09-12T00:27:22;95826.59;;;17.27;100.00
57606;BME280;43430;48.204;11.556;2023-09-12T00:29:47;95826.88;;;17.30;100.00
57606;BME280;43430;48.204;11.556;2023-09-12T00:32:13;95822.63;;;17.35;100.00
57606;BME280;43430;48.204;11.556;2023-09-12T00:34:38;95826.88;;;17.30;100.00
57606;BME280;43430;48.204;11.556;2023-09-12T00:37:04;95828.50;;;17.31;100.00
57606;BME280;43430;48.204;11.556;2023-09-12T00:39:29;95818.09;;;17.25;100.00
57606;BME280;43430;48.204;11.556;2023-09-12T00:41:55;95816.78;;;17.17;100.00
57606;BME280;43430;48.204;11.556;2023-09-12T00:44:20;95817.28;;;17.09;100.00
57606;BME280;43430;48.204;11.556;2023-09-12T00:46:45;95811.72;;;17.00;100.00
57606;BME280;43430;48.204;11.556;2023-09-12T00:49:12;95815.94;;;16.96;100.00
57606;BME280;43430;48.204;11.556;2023-09-12T00:51:39;95810.91;;;16.95;100.00
57606;BME280;43430;48.204;11.556;2023-09-12T00:54:04;95806.13;;;16.97;100.00
57606;BME280;43430;48.204;11.556;2023-09-12T00:56:29;95809.03;;;16.95;100.00
57606;BME280;43430;48.204;11.556;2023-09-12T00:58:55;95813.03;;;16.98;100.00
57606;BME280;43430;48.204;11.556;2023-09-12T01:01:20;95805.59;;;16.90;100.00
57606;BME280;43430;48.204;11.556;2023-09-12T01:03:45;95802.63;;;16.86;100.00
57606;BME280;43430;48.204;11.556;2023-09-12T01:06:11;95808.75;;;16.81;100.00
57606;BME280;43430;48.204;11.556;2023-09-12T01:08:37;95799.41;;;16.74;100.00
57606;BME280;43430;48.204;11.556;2023-09-12T01:11:03;95809.28;;;16.78;100.00
57606;BME280;43430;48.204;11.556;2023-09-12T01:13:29;95807.41;;;16.79;100.00
57606;BME280;43430;48.204;11.556;2023-09-12T01:15:54;95802.91;;;16.74;100.00
57606;BME280;43430;48.204;11.556;2023-09-12T01:18:19;95801.53;;;16.67;100.00
57606;BME280;43430;48.204;11.556;2023-09-12T01:20:54;95803.09;;;16.57;100.00
57606;BME280;43430;48.204;11.556;2023-09-12T01:23:39;95806.03;;;16.56;100.00
57606;BME280;43430;48.204;11.556;2023-09-12T01:28:54;95813.22;;;16.55;100.00
57606;BME280;43430;48.204;11.556;2023-09-12T01:31:20;95812.69;;;16.53;100.00
57606;BME280;43430;48.204;11.556;2023-09-12T01:33:45;95810.28;;;16.52;100.00
57606;BME280;43430;48.204;11.556;2023-09-12T01:36:10;95807.59;;;16.47;100.00
57606;BME280;43430;48.204;11.556;2023-09-12T01:38:35;95813.19;;;16.50;100.00
57606;BME280;43430;48.204;11.556;2023-09-12T01:41:01;95803.91;;;16.53;100.00
57606;BME280;43430;48.204;11.556;2023-09-12T01:43:26;95808.44;;;16.52;100.00
57606;BME280;43430;48.204;11.556;2023-09-12T01:45:52;95807.88;;;16.50;100.00
57606;BME280;43430;48.204;11.556;2023-09-12T01:48:19;95809.19;;;16.48;100.00
57606;BME280;43430;48.204;11.556;2023-09-12T01:50:45;95811.59;;;16.44;100.00
57606;BME280;43430;48.204;11.556;2023-09-12T01:53:10;95810.00;;;16.43;100.00
57606;BME280;43430;48.204;11.556;2023-09-12T01:55:36;95809.44;;;16.41;100.00
57606;BME280;43430;48.204;11.556;2023-09-12T01:58:02;95811.06;;;16.42;100.00
57606;BME280;43430;48.204;11.556;2023-09-12T02:00:27;95817.19;;;16.43;100.00
57606;BME280;43430;48.204;11.556;2023-09-12T02:02:53;95812.66;;;16.43;100.00
57606;BME280;43430;48.204;11.556;2023-09-12T02:05:21;95823.31;;;16.43;100.00
57606;BME280;43430;48.204;11.556;2023-09-12T02:07:47;95821.69;;;16.37;100.00
57606;BME280;43430;48.204;11.556;2023-09-12T02:10:13;95822.75;;;16.36;100.00
57606;BME280;43430;48.204;11.556;2023-09-12T02:12:39;95824.34;;;16.32;100.00
57606;BME280;43430;48.204;11.556;2023-09-12T02:15:04;95832.03;;;16.28;100.00
57606;BME280;43430;48.204;11.556;2023-09-12T02:17:30;95830.19;;;16.29;100.00
57606;BME280;43430;48.204;11.556;2023-09-12T02:19:55;95829.63;;;16.27;100.00
57606;BME280;43430;48.204;11.556;2023-09-12T02:22:20;95826.16;;;16.26;100.00
57606;BME280;43430;48.204;11.556;2023-09-12T02:24:45;95832.56;;;16.25;100.00
57606;BME280;43430;48.204;11.556;2023-09-12T02:27:11;95834.91;;;16.11;100.00
57606;BME280;43430;48.204;11.556;2023-09-12T02:29:38;95837.53;;;16.06;100.00
57606;BME280;43430;48.204;11.556;2023-09-12T02:32:04;95840.19;;;16.06;100.00
57606;BME280;43430;48.204;11.556;2023-09-12T02:34:29;95835.13;;;16.05;100.00
57606;BME280;43430;48.204;11.556;2023-09-12T02:36:55;95831.44;;;16.11;100.00
57606;BME280;43430;48.204;11.556;2023-09-12T02:39:20;95839.94;;;16.08;100.00
57606;BME280;43430;48.204;11.556;2023-09-12T02:41:47;95838.03;;;15.98;100.00
57606;BME280;43430;48.204;11.556;2023-09-12T02:44:13;95838.31;;;15.97;100.00
57606;BME280;43430;48.204;11.556;2023-09-12T02:46:38;95840.97;;;15.97;100.00
57606;BME280;43430;48.204;11.556;2023-09-12T02:49:03;95841.72;;;15.92;100.00
57606;BME280;43430;48.204;11.556;2023-09-12T02:51:28;95834.25;;;15.89;100.00
57606;BME280;43430;48.204;11.556;2023-09-12T02:53:54;95841.72;;;15.92;100.00
57606;BME280;43430;48.204;11.556;2023-09-12T02:56:19;95834.28;;;15.94;100.00
57606;BME280;43430;48.204;11.556;2023-09-12T02:58:47;95835.09;;;15.95;100.00
57606;BME280;43430;48.204;11.556;2023-09-12T03:01:16;95834.31;;;15.99;100.00
57606;BME280;43430;48.204;11.556;2023-09-12T03:03:41;95830.06;;;15.98;100.00
57606;BME280;43430;48.204;11.556;2023-09-12T03:06:06;95825.81;;;15.97;100.00
57606;BME280;43430;48.204;11.556;2023-09-12T03:08:32;95827.91;;;15.95;100.00
57606;BME280;43430;48.204;11.556;2023-09-12T03:10:57;95825.75;;;15.92;100.00
57606;BME280;43430;48.204;11.556;2023-09-12T03:13:26;95830.84;;;15.94;100.00
57606;BME280;43430;48.204;11.556;2023-09-12T03:15:51;95824.91;;;15.81;100.00
57606;BME280;43430;48.204;11.556;2023-09-12T03:18:16;95826.50;;;15.77;100.00
57606;BME280;43430;48.204;11.556;2023-09-12T03:20:42;95820.41;;;15.82;100.00
57606;BME280;43430;48.204;11.556;2023-09-12T03:23:07;95824.97;;;15.86;100.00
57606;BME280;43430;48.204;11.556;2023-09-12T03:25:38;95820.44;;;15.87;100.00
57606;BME280;43430;48.204;11.556;2023-09-12T03:28:04;95815.63;;;15.84;100.00
57606;BME280;43430;48.204;11.556;2023-09-12T03:30:30;95815.34;;;15.80;100.00
57606;BME280;43430;48.204;11.556;2023-09-12T03:32:56;95824.63;;;15.78;100.00
57606;BME280;43430;48.204;11.556;2023-09-12T03:35:21;95824.34;;;15.74;100.00
57606;BME280;43430;48.204;11.556;2023-09-12T03:37:46;95819.59;;;15.76;100.00
57606;BME280;43430;48.204;11.556;2023-09-12T03:40:11;95819.03;;;15.74;100.00
57606;BME280;43430;48.204;11.556;2023-09-12T03:42:37;95824.63;;;15.73;100.00
57606;BME280;43430;48.204;11.556;2023-09-12T03:45:02;95812.38;;;15.72;100.00
57606;BME280;43430;48.204;11.556;2023-09-12T03:47:28;95824.25;;;15.64;100.00
57606;BME280;43430;48.204;11.556;2023-09-12T03:49:53;95823.69;;;15.57;100.00
57606;BME280;43430;48.204;11.556;2023-09-12T03:52:18;95819.44;;;15.56;100.00
57606;BME280;43430;48.204;11.556;2023-09-12T03:54:43;95829.25;;;15.55;100.00
57606;BME280;43430;48.204;11.556;2023-09-12T03:57:09;95821.84;;;15.57;100.00
57606;BME280;43430;48.204;11.556;2023-09-12T03:59:34;95824.78;;;15.61;100.00
57606;BME280;43430;48.204;11.556;2023-09-12T04:02:01;95828.22;;;15.61;100.00
57606;BME280;43430;48.204;11.556;2023-09-12T04:04:26;95831.66;;;15.57;100.00
57606;BME280;43430;48.204;11.556;2023-09-12T04:06:51;95827.13;;;15.52;100.00
57606;BME280;43430;48.204;11.556;2023-09-12T04:09:16;95835.91;;;15.53;100.00
57606;BME280;43430;48.204;11.556;2023-09-12T04:11:42;95831.91;;;15.55;100.00
57606;BME280;43430;48.204;11.556;2023-09-12T04:14:07;95833.25;;;15.53;100.00
57606;BME280;43430;48.204;11.556;2023-09-12T04:16:32;95831.09;;;15.50;100.00
57606;BME280;43430;48.204;11.556;2023-09-12T04:18:58;95827.94;;;15.53;100.00
57606;BME280;43430;48.204;11.556;2023-09-12T04:21:23;95832.44;;;15.52;100.00
57606;BME280;43430;48.204;11.556;2023-09-12T04:23:49;95833.47;;;15.51;100.00
57606;BME280;43430;48.204;11.556;2023-09-12T04:26:15;95837.19;;;15.50;100.00
57606;BME280;43430;48.204;11.556;2023-09-12T04:28:40;95836.91;;;15.47;100.00
57606;BME280;43430;48.204;11.556;2023-09-12T04:31:05;95831.88;;;15.50;100.00
57606;BME280;43430;48.204;11.556;2023-09-12T04:33:31;95836.69;;;15.53;100.00
57606;BME280;43430;48.204;11.556;2023-09-12T04:36:02;95833.53;;;15.56;100.00
57606;BME280;43430;48.204;11.556;2023-09-12T04:38:27;95832.69;;;15.51;100.00
57606;BME280;43430;48.204;11.556;2023-09-12T04:40:53;95833.75;;;15.50;100.00
57606;BME280;43430;48.204;11.556;2023-09-12T04:43:19;95839.31;;;15.48;100.00
57606;BME280;43430;48.204;11.556;2023-09-12T04:45:44;95832.38;;;15.42;100.00
57606;BME280;43430;48.204;11.556;2023-09-12T04:48:09;95837.41;;;15.43;100.00
57606;BME280;43430;48.204;11.556;2023-09-12T04:50:40;95836.63;;;15.43;100.00
57606;BME280;43430;48.204;11.556;2023-09-12T04:53:05;95836.13;;;15.46;100.00
57606;BME280;43430;48.204;11.556;2023-09-12T04:55:30;95839.84;;;15.50;100.00
57606;BME280;43430;48.204;11.556;2023-09-12T04:57:55;95832.97;;;15.54;100.00
57606;BME280;43430;48.204;11.556;2023-09-12T05:00:21;95839.38;;;15.58;100.00
57606;BME280;43430;48.204;11.556;2023-09-12T05:02:46;95833.03;;;15.59;100.00
57606;BME280;43430;48.204;11.556;2023-09-12T05:05:11;95830.59;;;15.58;100.00
57606;BME280;43430;48.204;11.556;2023-09-12T05:07:36;95838.56;;;15.58;100.00
57606;BME280;43430;48.204;11.556;2023-09-12T05:10:02;95838.03;;;15.56;100.00
57606;BME280;43430;48.204;11.556;2023-09-12T05:12:28;95836.72;;;15.58;100.00
57606;BME280;43430;48.204;11.556;2023-09-12T05:14:54;95838.84;;;15.61;100.00
57606;BME280;43430;48.204;11.556;2023-09-12T05:17:19;95842.94;;;15.69;100.00
57606;BME280;43430;48.204;11.556;2023-09-12T05:19:44;95840.81;;;15.66;100.00
57606;BME280;43430;48.204;11.556;2023-09-12T05:22:09;95852.44;;;15.65;100.00
57606;BME280;43430;48.204;11.556;2023-09-12T05:24:35;95845.59;;;15.69;100.00
57606;BME280;43430;48.204;11.556;2023-09-12T05:27:00;95848.56;;;15.78;100.00
57606;BME280;43430;48.204;11.556;2023-09-12T05:29:25;95850.72;;;15.86;100.00
57606;BME280;43430;48.204;11.556;2023-09-12T05:31:50;95849.41;;;15.88;100.00
57606;BME280;43430;48.204;11.556;2023-09-12T05:34:16;95844.94;;;15.94;100.00
57606;BME280;43430;48.204;11.556;2023-09-12T05:36:41;95844.41;;;15.97;100.00
57606;BME280;43430;48.204;11.556;2023-09-12T05:39:06;95844.44;;;16.02;100.00
57606;BME280;43430;48.204;11.556;2023-09-12T05:41:32;95848.22;;;16.11;100.00
57606;BME280;43430;48.204;11.556;2023-09-12T05:43:57;95851.94;;;16.21;100.00
57606;BME280;43430;48.204;11.556;2023-09-12T05:46:22;95849.88;;;16.28;100.00
57606;BME280;43430;48.204;11.556;2023-09-12T05:48:47;95843.25;;;16.35;100.00
57606;BME280;43430;48.204;11.556;2023-09-12T05:51:13;95852.06;;;16.46;100.00
57606;BME280;43430;48.204;11.556;2023-09-12T05:53:38;95850.75;;;16.49;100.00
57606;BME280;43430;48.204;11.556;2023-09-12T05:56:04;95849.94;;;16.58;100.00
57606;BME280;43430;48.204;11.556;2023-09-12T05:58:29;95849.50;;;16.77;100.00
57606;BME280;43430;48.204;11.556;2023-09-12T06:00:55;95839.94;;;17.01;100.00
57606;BME280;43430;48.204;11.556;2023-09-12T06:03:20;95834.59;;;17.27;100.00
57606;BME280;43430;48.204;11.556;2023-09-12T06:05:46;95831.13;;;17.47;100.00
57606;BME280;43430;48.204;11.556;2023-09-12T06:08:11;95829.22;;;17.68;100.00
57606;BME280;43430;48.204;11.556;2023-09-12T06:10:36;95819.06;;;17.85;100.00
57606;BME280;43430;48.204;11.556;2023-09-12T06:13:01;95808.41;;;17.90;100.00
57606;BME280;43430;48.204;11.556;2023-09-12T06:15:27;95806.78;;;17.89;100.00
57606;BME280;43430;48.204;11.556;2023-09-12T06:17:53;95806.25;;;17.92;100.00
57606;BME280;43430;48.204;11.556;2023-09-12T06:20:19;95808.16;;;17.82;100.00
57606;BME280;43430;48.204;11.556;2023-09-12T06:22:44;95805.19;;;17.93;100.00
57606;BME280;43430;48.204;11.556;2023-09-12T06:25:09;95815.59;;;17.95;100.00
57606;BME280;43430;48.204;11.556;2023-09-12T06:27:34;95808.38;;;17.95;100.00
57606;BME280;43430;48.204;11.556;2023-09-12T06:30:00;95806.25;;;17.97;100.00
57606;BME280;43430;48.204;11.556;2023-09-12T06:32:25;95807.84;;;17.98;100.00
57606;BME280;43430;48.204;11.556;2023-09-12T06:34:50;95812.06;;;18.10;100.00
57606;BME280;43430;48.204;11.556;2023-09-12T06:37:16;95809.38;;;18.10;100.00
57606;BME280;43430;48.204;11.556;2023-09-12T06:39:41;95810.41;;;18.24;100.00
57606;BME280;43430;48.204;11.556;2023-09-12T06:42:06;95807.16;;;18.32;100.00
57606;BME280;43430;48.204;11.556;2023-09-12T06:44:31;95810.56;;;18.48;100.00
57606;BME280;43430;48.204;11.556;2023-09-12T06:46:57;95806.56;;;18.45;100.00
57606;BME280;43430;48.204;11.556;2023-09-12T06:49:22;95809.19;;;18.56;100.00
57606;BME280;43430;48.204;11.556;2023-09-12T06:51:47;95816.03;;;18.67;100.00
57606;BME280;43430;48.204;11.556;2023-09-12T06:54:12;95809.34;;;18.74;100.00
57606;BME280;43430;48.204;11.556;2023-09-12T06:56:38;95818.13;;;18.80;100.00
57606;BME280;43430;48.204;11.556;2023-09-12T06:59:07;95810.84;;;18.91;100.00
57606;BME280;43430;48.204;11.556;2023-09-12T07:01:32;95809.50;;;18.93;100.00
57606;BME280;43430;48.204;11.556;2023-09-12T07:03:57;95811.63;;;18.96;100.00
57606;BME280;43430;48.204;11.556;2023-09-12T07:06:23;95804.06;;;19.04;100.00
57606;BME280;43430;48.204;11.556;2023-09-12T07:08:48;95806.09;;;19.17;100.00
57606;BME280;43430;48.204;11.556;2023-09-12T07:11:13;95808.34;;;19.34;100.00
57606;BME280;43430;48.204;11.556;2023-09-12T07:13:39;95805.97;;;19.32;100.00
57606;BME280;43430;48.204;11.556;2023-09-12T07:16:04;95805.88;;;19.42;100.00
57606;BME280;43430;48.204;11.556;2023-09-12T07:18:30;95815.13;;;19.55;100.00
57606;BME280;43430;48.204;11.556;2023-09-12T07:21:02;95807.53;;;19.67;100.00
57606;BME280;43430;48.204;11.556;2023-09-12T07:23:28;95813.63;;;19.73;100.00
57606;BME280;43430;48.204;11.556;2023-09-12T07:25:53;95805.75;;;19.82;100.00
57606;BME280;43430;48.204;11.556;2023-09-12T07:28:20;95807.53;;;19.91;100.00
57606;BME280;43430;48.204;11.556;2023-09-12T07:30:45;95800.94;;;20.08;100.00
57606;BME280;43430;48.204;11.556;2023-09-12T07:33:11;95799.94;;;20.23;100.00
57606;BME280;43430;48.204;11.556;2023-09-12T07:35:36;95800.25;;;20.40;100.00
57606;BME280;43430;48.204;11.556;2023-09-12T07:38:02;95788.91;;;20.48;100.00
57606;BME280;43430;48.204;11.556;2023-09-12T07:40:28;95788.91;;;20.48;100.00
57606;BME280;43430;48.204;11.556;2023-09-12T07:42:54;95786.38;;;20.57;100.00
57606;BME280;43430;48.204;11.556;2023-09-12T07:45:19;95783.94;;;20.60;100.00
57606;BME280;43430;48.204;11.556;2023-09-12T07:47:45;95788.56;;;20.74;100.00
57606;BME280;43430;48.204;11.556;2023-09-12T07:50:10;95784.41;;;20.81;100.00
57606;BME280;43430;48.204;11.556;2023-09-12T07:52:35;95784.84;;;20.89;100.00
57606;BME280;43430;48.204;11.556;2023-09-12T07:55:01;95791.16;;;20.98;100.00
57606;BME280;43430;48.204;11.556;2023-09-12T07:57:27;95781.63;;;21.05;100.00
57606;BME280;43430;48.204;11.556;2023-09-12T07:59:53;95787.50;;;21.07;100.00
57606;BME280;43430;48.204;11.556;2023-09-12T08:02:18;95784.88;;;21.21;100.00
57606;BME280;43430;48.204;11.556;2023-09-12T08:04:43;95788.88;;;21.24;100.00
57606;BME280;43430;48.204;11.556;2023-09-12T08:07:08;95788.19;;;21.32;100.00
57606;BME280;43430;48.204;11.556;2023-09-12T08:12:14;95785.75;;;21.49;100.00
57606;BME280;43430;48.204;11.556;2023-09-12T08:14:39;95781.00;;;21.60;100.00
57606;BME280;43430;48.204;11.556;2023-09-12T08:17:05;95779.31;;;21.64;100.00
57606;BME280;43430;48.204;11.556;2023-09-12T08:19:30;95778.91;;;21.71;100.00
57606;BME280;43430;48.204;11.556;2023-09-12T08:21:55;95775.84;;;21.77;100.00
57606;BME280;43430;48.204;11.556;2023-09-12T08:24:20;95772.38;;;21.91;100.00
57606;BME280;43430;48.204;11.556;2023-09-12T08:26:45;95771.19;;;21.97;100.00
57606;BME280;43430;48.204;11.556;2023-09-12T08:29:11;95772.69;;;22.03;100.00
57606;BME280;43430;48.204;11.556;2023-09-12T08:31:36;95770.38;;;22.10;100.00
57606;BME280;43430;48.204;11.556;2023-09-12T08:34:01;95759.53;;;22.29;100.00
57606;BME280;43430;48.204;11.556;2023-09-12T08:36:26;95759.44;;;22.34;100.00
57606;BME280;43430;48.204;11.556;2023-09-12T08:38:51;95755.34;;;22.37;100.00
57606;BME280;43430;48.204;11.556;2023-09-12T08:41:17;95763.66;;;22.49;100.00
57606;BME280;43430;48.204;11.556;2023-09-12T08:43:42;95763.63;;;22.63;100.00
57606;BME280;43430;48.204;11.556;2023-09-12T08:46:08;95767.63;;;22.65;100.00
57606;BME280;43430;48.204;11.556;2023-09-12T08:48:34;95757.72;;;22.74;100.00
57606;BME280;43430;48.204;11.556;2023-09-12T08:51:01;95750.41;;;22.89;100.00
57606;BME280;43430;48.204;11.556;2023-09-12T08:53:29;95760.34;;;23.02;100.00
57606;BME280;43430;48.204;11.556;2023-09-12T08:55:54;95752.75;;;23.04;100.00
57606;BME280;43430;48.204;11.556;2023-09-12T08:58:20;95749.00;;;23.14;100.00
57606;BME280;43430;48.204;11.556;2023-09-12T09:00:46;95749.69;;;23.19;100.00
57606;BME280;43430;48.204;11.556;2023-09-12T09:03:11;95740.44;;;23.34;100.00
57606;BME280;43430;48.204;11.556;2023-09-12T09:05:37;95745.72;;;23.48;100.00
57606;BME280;43430;48.204;11.556;2023-09-12T09:08:04;95740.69;;;23.55;100.00
57606;BME280;43430;48.204;11.556;2023-09-12T09:10:30;95748.09;;;23.81;100.00
57606;BME280;43430;48.204;11.556;2023-09-12T09:12:57;95736.13;;;24.04;100.00
57606;BME280;43430;48.204;11.556;2023-09-12T09:15:26;95737.28;;;24.21;100.00
57606;BME280;43430;48.204;11.556;2023-09-12T09:17:52;95728.84;;;24.13;100.00
57606;BME280;43430;48.204;11.556;2023-09-12T09:20:28;95736.47;;;24.29;100.00
57606;BME280;43430;48.204;11.556;2023-09-12T09:23:01;95731.69;;;24.08;100.00
57606;BME280;43430;48.204;11.556;2023-09-12T09:25:27;95731.22;;;24.15;100.00
57606;BME280;43430;48.204;11.556;2023-09-12T09:27:52;95728.53;;;24.15;100.00
57606;BME280;43430;48.204;11.556;2023-09-12T09:30:17;95719.81;;;24.09;100.00
57606;BME280;43430;48.204;11.556;2023-09-12T09:32:44;95723.47;;;24.13;100.00
57606;BME280;43430;48.204;11.556;2023-09-12T09:35:10;95717.19;;;24.44;100.00
57606;BME280;43430;48.204;11.556;2023-09-12T09:37:36;95717.66;;;24.63;100.00
57606;BME280;43430;48.204;11.556;2023-09-12T09:40:01;95715.28;;;24.71;100.00
57606;BME280;43430;48.204;11.556;2023-09-12T09:42:29;95703.69;;;24.87;100.00
57606;BME280;43430;48.204;11.556;2023-09-12T09:44:55;95702.13;;;24.78;100.00
57606;BME280;43430;48.204;11.556;2023-09-12T09:47:20;95711.13;;;24.99;100.00
57606;BME280;43430;48.204;11.556;2023-09-12T09:49:45;95702.41;;;25.11;100.00
57606;BME280;43430;48.204;11.556;2023-09-12T09:52:11;95698.41;;;25.26;100.00
57606;BME280;43430;48.204;11.556;2023-09-12T09:54:38;95696.94;;;25.37;100.00
57606;BME280;43430;48.204;11.556;2023-09-12T09:57:07;95700.28;;;25.34;100.00
57606;BME280;43430;48.204;11.556;2023-09-12T09:59:33;95711.06;;;25.34;100.00
57606;BME280;43430;48.204;11.556;2023-09-12T10:01:58;95709.50;;;25.24;100.00
57606;BME280;43430;48.204;11.556;2023-09-12T10:04:25;95701.09;;;25.26;100.00
57606;BME280;43430;48.204;11.556;2023-09-12T10:06:51;95703.81;;;25.26;100.00
57606;BME280;43430;48.204;11.556;2023-09-12T10:09:18;95694.38;;;25.41;100.00
57606;BME280;43430;48.204;11.556;2023-09-12T10:11:47;95692.44;;;25.50;100.00
57606;BME280;43430;48.204;11.556;2023-09-12T10:14:13;95694.97;;;25.55;100.00
57606;BME280;43430;48.204;11.556;2023-09-12T10:16:49;95692.38;;;25.67;100.00
57606;BME280;43430;48.204;11.556;2023-09-12T10:19:23;95688.97;;;25.79;100.00
57606;BME280;43430;48.204;11.556;2023-09-12T10:24:23;95682.94;;;25.82;100.00
57606;BME280;43430;48.204;11.556;2023-09-12T10:26:50;95684.06;;;25.81;100.00
57606;BME280;43430;48.204;11.556;2023-09-12T10:29:15;95685.16;;;25.80;100.00
57606;BME280;43430;48.204;11.556;2023-09-12T10:31:41;95684.06;;;25.81;100.00
57606;BME280;43430;48.204;11.556;2023-09-12T10:34:06;95677.25;;;25.75;100.00
57606;BME280;43430;48.204;11.556;2023-09-12T10:36:36;95680.38;;;25.77;100.00
57606;BME280;43430;48.204;11.556;2023-09-12T10:39:03;95675.97;;;25.81;100.00
57606;BME280;43430;48.204;11.556;2023-09-12T10:41:29;95674.53;;;26.04;100.00
57606;BME280;43430;48.204;11.556;2023-09-12T10:43:55;95673.84;;;26.16;100.00
57606;BME280;43430;48.204;11.556;2023-09-12T10:46:22;95678.69;;;26.02;100.00
57606;BME280;43430;48.204;11.556;2023-09-12T10:48:48;95666.25;;;26.10;100.00
57606;BME280;43430;48.204;11.556;2023-09-12T10:51:14;95673.69;;;26.13;100.00
57606;BME280;43430;48.204;11.556;2023-09-12T10:53:44;95665.25;;;26.14;100.00
57606;BME280;43430;48.204;11.556;2023-09-12T10:56:18;95666.13;;;26.27;100.00
57606;BME280;43430;48.204;11.556;2023-09-12T11:01:35;95668.75;;;26.36;100.00
57606;BME280;43430;48.204;11.556;2023-09-12T11:04:29;95670.59;;;26.44;100.00
57606;BME280;43430;48.204;11.556;2023-09-12T11:06:48;95669.16;;;26.46;100.00
57606;BME280;43430;48.204;11.556;2023-09-12T11:11:39;95669.22;;;26.59;100.00
57606;BME280;43430;48.204;11.556;2023-09-12T11:14:05;95667.50;;;26.75;100.00
57606;BME280;43430;48.204;11.556;2023-09-12T11:16:30;95667.69;;;26.70;100.00
57606;BME280;43430;48.204;11.556;2023-09-12T11:21:36;95667.19;;;26.56;100.00
57606;BME280;43430;48.204;11.556;2023-09-12T11:24:02;95664.41;;;26.64;100.00
57606;BME280;43430;48.204;11.556;2023-09-12T11:26:29;95663.09;;;26.70;100.00
57606;BME280;43430;48.204;11.556;2023-09-12T11:28:54;95667.69;;;26.70;100.00
57606;BME280;43430;48.204;11.556;2023-09-12T11:31:26;95657.72;;;26.83;100.00
57606;BME280;43430;48.204;11.556;2023-09-12T11:33:52;95649.88;;;26.69;100.00
57606;BME280;43430;48.204;11.556;2023-09-12T11:36:18;95651.72;;;26.77;100.00
57606;BME280;43430;48.204;11.556;2023-09-12T11:38:43;95656.97;;;26.94;100.00
57606;BME280;43430;48.204;11.556;2023-09-12T11:41:14;95655.13;;;26.86;100.00
57606;BME280;43430;48.204;11.556;2023-09-12T11:43:39;95661.03;;;27.01;100.00
57606;BME280;43430;48.204;11.556;2023-09-12T11:46:06;95650.50;;;27.20;100.00
57606;BME280;43430;48.204;11.556;2023-09-12T11:48:33;95656.97;;;27.07;100.00
57606;BME280;43430;48.204;11.556;2023-09-12T11:50:59;95655.72;;;27.04;100.00
57606;BME280;43430;48.204;11.556;2023-09-12T11:53:27;95652.03;;;27.09;100.00
57606;BME280;43430;48.204;11.556;2023-09-12T11:55:56;95656.31;;;27.10;100.00
57606;BME280;43430;48.204;11.556;2023-09-12T11:58:21;95653.59;;;27.10;100.00
57606;BME280;43430;48.204;11.556;2023-09-12T12:00:49;95658.31;;;27.01;100.00
57606;BME280;43430;48.204;11.556;2023-09-12T12:03:16;95651.78;;;27.02;100.00
57606;BME280;43430;48.204;11.556;2023-09-12T12:05:42;95644.59;;;27.06;100.00
57606;BME280;43430;48.204;11.556;2023-09-12T12:08:08;95643.34;;;27.03;100.00
57606;BME280;43430;48.204;11.556;2023-09-12T12:10:34;95646.16;;;26.94;100.00
57606;BME280;43430;48.204;11.556;2023-09-12T12:12:59;95638.94;;;27.11;100.00
57606;BME280;43430;48.204;11.556;2023-09-12T12:15:25;95643.28;;;27.24;100.00
57606;BME280;43430;48.204;11.556;2023-09-12T12:17:54;95635.63;;;27.38;100.00
57606;BME280;43430;48.204;11.556;2023-09-12T12:20:19;95639.59;;;27.53;100.00
57606;BME280;43430;48.204;11.556;2023-09-12T12:22:44;95637.91;;;27.61;100.00
57606;BME280;43430;48.204;11.556;2023-09-12T12:25:10;95636.41;;;27.51;100.00
57606;BME280;43430;48.204;11.556;2023-09-12T12:27:39;95632.34;;;27.20;100.00
57606;BME280;43430;48.204;11.556;2023-09-12T12:30:13;95633.59;;;27.23;100.00
57606;BME280;43430;48.204;11.556;2023-09-12T12:32:39;95626.59;;;27.34;100.00
57606;BME280;43430;48.204;11.556;2023-09-12T12:35:06;95628.19;;;27.48;100.00
57606;BME280;43430;48.204;11.556;2023-09-12T12:37:32;95615.31;;;27.69;100.00
57606;BME280;43430;48.204;11.556;2023-09-12T12:39:58;95623.66;;;27.88;100.00
57606;BME280;43430;48.204;11.556;2023-09-12T12:42:23;95614.19;;;27.82;100.00
57606;BME280;43430;48.204;11.556;2023-09-12T12:44:54;95616.44;;;27.92;100.00
57606;BME280;43430;48.204;11.556;2023-09-12T12:47:19;95612.38;;;27.86;100.00
57606;BME280;43430;48.204;11.556;2023-09-12T12:49:45;95613.41;;;27.82;100.00